Time;durP1;ratioP1;P1;durP2;ratioP2;P2;SDS_P1;SDS_P2;PMS_P1;PMS_P2;Temp;Humidity;BMP_temperature;BMP_pressure;BME280_temperature;BME280_humidity;BME280_pressure;Samples;Min_cycle;Max_cycle;Signal;HPM_P1;HPM_P2
2023/12/11 00:00:21;;;;;;;15.20;3.58;;;;;;;;;;6061991;23;20053;-81
2023/12/11 00:02:49;;;;;;;22.23;3.28;;;;;;;;;;6061827;23;20106;-81
2023/12/11 00:05:15;;;;;;;11.85;2.90;;;;;;;;;;6087558;23;20026;-81
2023/12/11 00:07:40;;;;;;;15.00;2.85;;;;;;;;;;6085304;23;20022;-81
2023/12/11 00:10:06;;;;;;;17.27;3.10;;;;;;;;;;6111811;23;20018;-80
2023/12/11 00:12:32;;;;;;;14.65;2.97;;;;;;;;;;6073210;23;20085;-81
2023/12/11 00:14:59;;;;;;;15.88;3.15;;;;;;;;;;6062885;23;20018;-80
2023/12/11 00:17:24;;;;;;;16.52;3.78;;;;;;;;;;6097359;23;20353;-80
2023/12/11 00:19:50;;;;;;;15.32;3.25;;;;;;;;;;6057987;23;20089;-81
2023/12/11 00:22:15;;;;;;;19.05;3.35;;;;;;;;;;6057888;23;20070;-81
2023/12/11 00:24:41;;;;;;;15.80;3.03;;;;;;;;;;6087288;23;20356;-81
2023/12/11 00:27:06;;;;;;;13.63;3.03;;;;;;;;;;6061757;23;20553;-81
2023/12/11 00:29:32;;;;;;;13.73;2.67;;;;;;;;;;6074912;23;20041;-80
2023/12/11 00:31:57;;;;;;;15.20;3.25;;;;;;;;;;6086490;23;20034;-81
2023/12/11 00:34:23;;;;;;;13.68;3.00;;;;;;;;;;6063294;23;20023;-80
2023/12/11 00:36:48;;;;;;;16.45;3.25;;;;;;;;;;6089605;23;20011;-80
2023/12/11 00:39:16;;;;;;;18.25;3.28;;;;;;;;;;6035540;23;20465;-81
2023/12/11 00:41:52;;;;;;;17.08;3.63;;;;;;;;;;6080085;23;20019;-81
2023/12/11 00:44:18;;;;;;;13.13;3.00;;;;;;;;;;6035949;23;20464;-81
2023/12/11 00:46:43;;;;;;;13.85;3.45;;;;;;;;;;6093782;23;20062;-81
2023/12/11 00:49:12;;;;;;;12.77;3.65;;;;;;;;;;6087314;23;20701;-80
2023/12/11 00:51:37;;;;;;;13.68;2.75;;;;;;;;;;6080617;23;20025;-80
2023/12/11 00:54:03;;;;;;;13.52;3.17;;;;;;;;;;6062590;23;20014;-81
2023/12/11 00:56:28;;;;;;;12.27;2.75;;;;;;;;;;6060884;23;20024;-81
2023/12/11 00:58:54;;;;;;;17.02;3.20;;;;;;;;;;6087001;23;20053;-82
2023/12/11 01:01:20;;;;;;;13.60;3.17;;;;;;;;;;6111743;23;20018;-81
2023/12/11 01:03:45;;;;;;;8.43;2.70;;;;;;;;;;6063179;23;20018;-81
2023/12/11 01:06:10;;;;;;;15.57;2.58;;;;;;;;;;6063491;23;20027;-81
2023/12/11 01:08:39;;;;;;;12.95;2.72;;;;;;;;;;6088097;23;20026;-81
2023/12/11 01:11:05;;;;;;;11.60;2.75;;;;;;;;;;6064256;23;20045;-81
2023/12/11 01:13:31;;;;;;;9.73;2.70;;;;;;;;;;6064145;23;20018;-82
2023/12/11 01:15:56;;;;;;;10.88;2.35;;;;;;;;;;6064043;23;20150;-81
2023/12/11 01:18:23;;;;;;;10.00;2.40;;;;;;;;;;6087533;23;20026;-81
2023/12/11 01:20:50;;;;;;;8.07;2.58;;;;;;;;;;6087946;23;20018;-82
2023/12/11 01:23:15;;;;;;;9.52;2.22;;;;;;;;;;6064586;23;20022;-81
2023/12/11 01:25:41;;;;;;;9.75;2.55;;;;;;;;;;6087968;23;20041;-82
2023/12/11 01:28:06;;;;;;;11.57;2.60;;;;;;;;;;6064244;23;20093;-82
2023/12/11 01:30:31;;;;;;;13.48;2.85;;;;;;;;;;6063654;23;20020;-81
2023/12/11 01:32:59;;;;;;;14.93;2.88;;;;;;;;;;6063907;23;20014;-81
2023/12/11 01:35:24;;;;;;;12.05;2.55;;;;;;;;;;6087009;23;20102;-80
2023/12/11 01:37:50;;;;;;;8.38;2.45;;;;;;;;;;6061936;23;20065;-81
2023/12/11 01:40:15;;;;;;;13.40;2.70;;;;;;;;;;6064174;23;20408;-81
2023/12/11 01:42:40;;;;;;;9.07;2.40;;;;;;;;;;6087015;23;20025;-81
2023/12/11 01:45:06;;;;;;;13.18;2.63;;;;;;;;;;6087343;23;20027;-82
2023/12/11 01:47:32;;;;;;;10.77;2.40;;;;;;;;;;6089291;23;20521;-81
2023/12/11 01:49:57;;;;;;;13.93;2.63;;;;;;;;;;6089516;23;20808;-82
2023/12/11 01:52:23;;;;;;;11.52;2.90;;;;;;;;;;6066220;23;20018;-81
2023/12/11 01:54:49;;;;;;;9.65;2.35;;;;;;;;;;6088600;23;20453;-81
2023/12/11 01:57:14;;;;;;;11.60;2.70;;;;;;;;;;6090117;23;20025;-80
2023/12/11 01:59:40;;;;;;;14.85;2.85;;;;;;;;;;6064351;23;20017;-82
2023/12/11 02:02:05;;;;;;;14.23;3.35;;;;;;;;;;6087383;23;21387;-81
2023/12/11 02:04:31;;;;;;;15.52;3.20;;;;;;;;;;6086912;23;20033;-81
2023/12/11 02:06:57;;;;;;;12.25;3.80;;;;;;;;;;6062987;23;20041;-81
2023/12/11 02:09:22;;;;;;;10.48;2.80;;;;;;;;;;6064697;23;20361;-81
2023/12/11 02:11:48;;;;;;;13.73;2.70;;;;;;;;;;6087556;23;20007;-83
2023/12/11 02:14:13;;;;;;;11.20;2.75;;;;;;;;;;6064725;23;20352;-80
2023/12/11 02:16:39;;;;;;;14.10;3.47;;;;;;;;;;6063078;23;20011;-81
2023/12/11 02:19:24;;;;;;;14.40;3.05;;;;;;;;;;6064619;23;20022;-82
2023/12/11 02:21:50;;;;;;;12.65;3.13;;;;;;;;;;6004527;23;20122;-81
2023/12/11 02:24:19;;;;;;;11.93;2.92;;;;;;;;;;6006177;23;20492;-81
2023/12/11 02:26:45;;;;;;;12.40;3.00;;;;;;;;;;6004778;23;20457;-80
2023/12/11 02:29:10;;;;;;;13.20;3.75;;;;;;;;;;6005529;23;20034;-81
2023/12/11 02:31:36;;;;;;;16.02;2.97;;;;;;;;;;5980752;23;20311;-81
2023/12/11 02:34:01;;;;;;;14.82;3.38;;;;;;;;;;5981826;23;20019;-82
2023/12/11 02:36:27;;;;;;;14.55;2.80;;;;;;;;;;6004890;23;20347;-81
2023/12/11 02:38:52;;;;;;;16.85;3.10;;;;;;;;;;6028808;23;20479;-81
2023/12/11 02:41:19;;;;;;;12.55;2.80;;;;;;;;;;6004012;23;20092;-80
2023/12/11 02:43:44;;;;;;;18.52;2.90;;;;;;;;;;5981549;23;20027;-81
2023/12/11 02:46:10;;;;;;;17.10;3.05;;;;;;;;;;6004131;23;20016;-81
2023/12/11 02:48:35;;;;;;;10.45;2.88;;;;;;;;;;6028930;23;20389;-80
2023/12/11 02:51:00;;;;;;;12.10;2.47;;;;;;;;;;5980241;23;20449;-81
2023/12/11 02:53:26;;;;;;;12.35;2.92;;;;;;;;;;5981520;23;20366;-81
2023/12/11 02:55:51;;;;;;;15.95;2.90;;;;;;;;;;5980871;23;20735;-81
2023/12/11 02:58:17;;;;;;;10.45;2.70;;;;;;;;;;6025201;23;20040;-80
2023/12/11 03:00:42;;;;;;;12.98;3.05;;;;;;;;;;6064588;23;20728;-81
2023/12/11 03:03:09;;;;;;;11.20;2.20;;;;;;;;;;6087313;23;20014;-81
2023/12/11 03:05:34;;;;;;;12.52;2.67;;;;;;;;;;6063222;23;20499;-81
2023/12/11 03:08:03;;;;;;;12.93;2.53;;;;;;;;;;6063240;23;20014;-81
2023/12/11 03:10:28;;;;;;;10.63;2.28;;;;;;;;;;6086332;23;20457;-81
2023/12/11 03:12:54;;;;;;;12.05;3.25;;;;;;;;;;6087202;23;20018;-81
2023/12/11 03:15:19;;;;;;;13.82;2.40;;;;;;;;;;6087995;23;20458;-81
2023/12/11 03:17:46;;;;;;;9.82;2.15;;;;;;;;;;6087429;23;20014;-81
2023/12/11 03:20:12;;;;;;;7.78;2.38;;;;;;;;;;6063107;23;20030;-81
2023/12/11 03:22:37;;;;;;;10.77;2.42;;;;;;;;;;6060822;23;20093;-80
2023/12/11 03:25:03;;;;;;;9.27;2.17;;;;;;;;;;6063328;23;20029;-81
2023/12/11 03:27:28;;;;;;;11.93;2.47;;;;;;;;;;6058175;23;20015;-80
2023/12/11 03:29:53;;;;;;;11.05;2.80;;;;;;;;;;6083196;23;20045;-80
2023/12/11 03:32:21;;;;;;;7.93;1.85;;;;;;;;;;6069795;23;20014;-81
2023/12/11 03:34:47;;;;;;;;;;;;;;;;;;6063576;23;20020;-81
2023/12/11 03:37:12;;;;;;;11.48;2.50;;;;;;;;;;6044806;23;20344;-80
2023/12/11 03:39:38;;;;;;;9.35;2.45;;;;;;;;;;6086539;23;20367;-80
2023/12/11 03:42:03;;;;;;;13.23;2.80;;;;;;;;;;6062673;23;20018;-80
2023/12/11 03:44:29;;;;;;;14.57;2.83;;;;;;;;;;6063019;23;20173;-81
2023/12/11 03:46:54;;;;;;;9.80;2.90;;;;;;;;;;6061761;23;20172;-81
2023/12/11 03:49:20;;;;;;;6.70;2.40;;;;;;;;;;6062127;23;20532;-81
2023/12/11 03:51:48;;;;;;;10.63;2.30;;;;;;;;;;6083353;23;20163;-81
2023/12/11 03:54:14;;;;;;;11.18;2.83;;;;;;;;;;6104424;23;20042;-82
2023/12/11 03:56:39;;;;;;;14.07;2.38;;;;;;;;;;6083122;23;20055;-81
2023/12/11 03:59:07;;;;;;;10.50;2.50;;;;;;;;;;6058018;23;20015;-82
2023/12/11 04:01:35;;;;;;;10.80;2.60;;;;;;;;;;6056923;23;20019;-81
2023/12/11 04:04:01;;;;;;;7.88;2.33;;;;;;;;;;6058909;23;20018;-81
2023/12/11 04:06:26;;;;;;;11.27;2.80;;;;;;;;;;6057395;23;20027;-82
2023/12/11 04:08:52;;;;;;;9.68;2.30;;;;;;;;;;6057855;23;20073;-81
2023/12/11 04:11:20;;;;;;;12.13;2.58;;;;;;;;;;6068892;23;20089;-82
2023/12/11 04:13:46;;;;;;;8.52;2.67;;;;;;;;;;6112178;23;20025;-81
2023/12/11 04:16:16;;;;;;;9.07;2.20;;;;;;;;;;6086234;23;20014;-81
2023/12/11 04:18:42;;;;;;;9.52;2.58;;;;;;;;;;6062676;23;20014;-81
2023/12/11 04:21:08;;;;;;;8.32;2.28;;;;;;;;;;6085718;23;20704;-81
2023/12/11 04:23:33;;;;;;;15.10;2.60;;;;;;;;;;6087347;23;20015;-81
2023/12/11 04:25:59;;;;;;;12.23;3.10;;;;;;;;;;6048518;23;20018;-82
2023/12/11 04:28:25;;;;;;;10.90;2.38;;;;;;;;;;6086614;23;20022;-82
2023/12/11 04:30:51;;;;;;;14.32;2.92;;;;;;;;;;6047205;23;20014;-81
2023/12/11 04:33:16;;;;;;;10.25;2.28;;;;;;;;;;6069083;23;20025;-81
2023/12/11 04:35:42;;;;;;;9.13;2.58;;;;;;;;;;6081938;23;20081;-82
2023/12/11 04:38:08;;;;;;;10.80;2.42;;;;;;;;;;6024501;23;20011;-83
2023/12/11 04:40:33;;;;;;;10.88;2.67;;;;;;;;;;6084230;23;20381;-81
2023/12/11 04:43:01;;;;;;;14.15;2.50;;;;;;;;;;6083427;23;20066;-80
2023/12/11 04:45:26;;;;;;;10.77;2.95;;;;;;;;;;5998217;23;20421;-81
2023/12/11 04:47:52;;;;;;;6.95;2.20;;;;;;;;;;6038848;23;20038;-81
2023/12/11 04:50:18;;;;;;;9.95;2.72;;;;;;;;;;6039299;23;20394;-79
2023/12/11 04:52:44;;;;;;;9.02;2.38;;;;;;;;;;6039872;23;20026;-80
2023/12/11 04:55:09;;;;;;;12.32;2.70;;;;;;;;;;6023142;23;20097;-81
2023/12/11 04:57:35;;;;;;;13.43;2.90;;;;;;;;;;6039785;23;20070;-80
2023/12/11 05:00:24;;;;;;;12.35;2.63;;;;;;;;;;6033485;23;20094;-80
2023/12/11 05:02:52;;;;;;;12.13;2.75;;;;;;;;;;5967765;23;20024;-80
2023/12/11 05:05:17;;;;;;;13.48;2.72;;;;;;;;;;5948238;23;20179;-82
2023/12/11 05:07:43;;;;;;;9.73;2.58;;;;;;;;;;5997032;23;20399;-83
2023/12/11 05:10:09;;;;;;;10.60;2.92;;;;;;;;;;5999901;23;20022;-85
2023/12/11 05:12:34;;;;;;;11.43;2.63;;;;;;;;;;5975327;23;20171;-84
2023/12/11 05:15:01;;;;;;;14.38;2.63;;;;;;;;;;5953600;23;20036;-83
2023/12/11 05:17:27;;;;;;;12.77;2.85;;;;;;;;;;5997917;23;20489;-85
2023/12/11 05:19:54;;;;;;;12.00;2.97;;;;;;;;;;5971896;23;20024;-84
2023/12/11 05:22:20;;;;;;;11.10;2.45;;;;;;;;;;5968476;24;20498;-85
2023/12/11 05:24:47;;;;;;;13.43;2.80;;;;;;;;;;5986363;23;20028;-80
2023/12/11 05:27:13;;;;;;;;;;;;;;;;;;5997361;23;20114;-82
2023/12/11 05:29:39;;;;;;;13.07;2.95;;;;;;;;;;5974830;23;20425;-81
2023/12/11 05:32:25;;;;;;;14.35;2.88;;;;;;;;;;5951211;23;20030;-81
2023/12/11 05:34:50;;;;;;;9.52;2.92;;;;;;;;;;5917908;24;20119;-81
2023/12/11 05:37:18;;;;;;;10.35;2.72;;;;;;;;;;5894750;24;20054;-81
2023/12/11 05:39:44;;;;;;;14.25;3.85;;;;;;;;;;5934712;24;20544;-81
2023/12/11 05:42:09;;;;;;;11.80;2.90;;;;;;;;;;5958996;24;20020;-81
2023/12/11 05:44:35;;;;;;;10.70;3.00;;;;;;;;;;5964813;23;20054;-81
2023/12/11 05:47:00;;;;;;;14.27;2.88;;;;;;;;;;5962909;23;20023;-81
2023/12/11 05:49:25;;;;;;;8.02;2.67;;;;;;;;;;5953130;23;20043;-80
2023/12/11 05:51:51;;;;;;;10.25;3.20;;;;;;;;;;5920451;24;20490;-82
2023/12/11 05:54:16;;;;;;;13.57;2.92;;;;;;;;;;5960096;23;20019;-81
2023/12/11 05:56:42;;;;;;;12.30;3.00;;;;;;;;;;5969087;23;20055;-81
2023/12/11 05:59:08;;;;;;;9.10;2.70;;;;;;;;;;5964610;23;20027;-82
2023/12/11 06:01:48;;;;;;;10.50;2.83;;;;;;;;;;5992166;23;20505;-82
2023/12/11 06:04:14;;;;;;;8.98;2.67;;;;;;;;;;5912835;24;20561;-82
2023/12/11 06:06:39;;;;;;;8.70;2.83;;;;;;;;;;5967915;23;20012;-81
2023/12/11 06:09:25;;;;;;;11.80;3.65;;;;;;;;;;5962797;23;20085;-82
2023/12/11 06:11:50;;;;;;;8.63;2.58;;;;;;;;;;5986248;23;20019;-81
2023/12/11 06:14:15;;;;;;;7.90;2.50;;;;;;;;;;6035440;23;20374;-81
2023/12/11 06:16:41;;;;;;;11.02;2.63;;;;;;;;;;6026631;23;20102;-81
2023/12/11 06:19:06;;;;;;;12.75;3.40;;;;;;;;;;6053511;23;20126;-81
2023/12/11 06:21:32;;;;;;;9.90;2.78;;;;;;;;;;5993187;23;20019;-81
2023/12/11 06:23:57;;;;;;;13.65;2.88;;;;;;;;;;6050250;23;20023;-81
2023/12/11 06:26:29;;;;;;;13.38;3.15;;;;;;;;;;6015917;23;20035;-81
2023/12/11 06:29:15;;;;;;;9.73;2.72;;;;;;;;;;6044963;23;20564;-81
2023/12/11 06:31:40;;;;;;;9.15;3.03;;;;;;;;;;6001634;23;20462;-81
2023/12/11 06:34:06;;;;;;;10.85;2.83;;;;;;;;;;5968985;23;20026;-81
2023/12/11 06:36:36;;;;;;;12.68;3.20;;;;;;;;;;6022485;23;20113;-81
2023/12/11 06:39:02;;;;;;;11.80;2.80;;;;;;;;;;5967638;23;20023;-81
2023/12/11 06:41:28;;;;;;;11.32;2.97;;;;;;;;;;6004739;23;20026;-81
2023/12/11 06:43:59;;;;;;;10.48;3.10;;;;;;;;;;6008746;23;20434;-81
2023/12/11 06:46:28;;;;;;;13.10;3.10;;;;;;;;;;5951715;23;20516;-81
2023/12/11 06:48:55;;;;;;;11.07;3.20;;;;;;;;;;5994906;23;20023;-81
2023/12/11 06:51:41;;;;;;;12.85;3.88;;;;;;;;;;6042689;23;20405;-81
2023/12/11 06:54:07;;;;;;;10.77;3.60;;;;;;;;;;6037375;23;20051;-82
2023/12/11 06:56:33;;;;;;;15.98;4.35;;;;;;;;;;6009012;23;20026;-81
2023/12/11 06:58:58;;;;;;;12.88;3.40;;;;;;;;;;6042316;23;20018;-81
2023/12/11 07:01:31;;;;;;;14.55;3.58;;;;;;;;;;5980150;23;20030;-81
2023/12/11 07:04:05;;;;;;;9.32;3.13;;;;;;;;;;6022867;23;20018;-81
2023/12/11 07:06:31;;;;;;;10.95;3.17;;;;;;;;;;5987685;23;20019;-80
2023/12/11 07:08:56;;;;;;;14.57;3.08;;;;;;;;;;6088164;23;20410;-81
2023/12/11 07:11:22;;;;;;;8.77;2.85;;;;;;;;;;6081125;23;20021;-81
2023/12/11 07:13:47;;;;;;;10.13;2.65;;;;;;;;;;6087882;23;20336;-81
2023/12/11 07:16:13;;;;;;;10.73;3.30;;;;;;;;;;6063167;23;20411;-81
2023/12/11 07:18:38;;;;;;;10.10;2.90;;;;;;;;;;6087617;23;20014;-82
2023/12/11 07:21:08;;;;;;;9.52;2.55;;;;;;;;;;6061880;23;20018;-81
2023/12/11 07:23:34;;;;;;;10.13;3.08;;;;;;;;;;6111954;23;20348;-81
2023/12/11 07:25:59;;;;;;;10.88;3.03;;;;;;;;;;6061806;23;20011;-81
2023/12/11 07:28:25;;;;;;;8.30;2.80;;;;;;;;;;6062600;23;20069;-82
2023/12/11 07:30:50;;;;;;;7.25;2.47;;;;;;;;;;6075974;23;20057;-82
2023/12/11 07:33:16;;;;;;;12.02;2.40;;;;;;;;;;6063395;23;20418;-82
2023/12/11 07:35:41;;;;;;;9.73;2.63;;;;;;;;;;6062220;23;20468;-82
2023/12/11 07:38:06;;;;;;;7.05;2.28;;;;;;;;;;6075386;23;20054;-83
2023/12/11 07:40:32;;;;;;;11.30;2.58;;;;;;;;;;6061593;23;20041;-82
2023/12/11 07:43:03;;;;;;;7.70;2.33;;;;;;;;;;6062922;23;20019;-82
2023/12/11 07:45:28;;;;;;;11.15;2.85;;;;;;;;;;6082743;23;20957;-82
2023/12/11 07:47:54;;;;;;;8.60;2.10;;;;;;;;;;6052142;23;20027;-81
2023/12/11 07:50:19;;;;;;;9.77;2.20;;;;;;;;;;6082091;23;20019;-82
2023/12/11 07:52:48;;;;;;;10.63;2.22;;;;;;;;;;6063008;23;20626;-81
2023/12/11 07:55:13;;;;;;;9.70;2.20;;;;;;;;;;6062588;23;20675;-82
2023/12/11 07:57:48;;;;;;;9.10;2.08;;;;;;;;;;6086368;23;20018;-82
2023/12/11 08:00:14;;;;;;;10.95;2.20;;;;;;;;;;6047054;23;20101;-82
2023/12/11 08:02:39;;;;;;;10.23;2.63;;;;;;;;;;6085762;23;20045;-82
2023/12/11 08:05:05;;;;;;;13.10;2.53;;;;;;;;;;6076686;23;20026;-82
2023/12/11 08:07:50;;;;;;;8.32;2.00;;;;;;;;;;6086404;23;20348;-81
2023/12/11 08:10:16;;;;;;;11.02;2.00;;;;;;;;;;5981587;23;20490;-82
2023/12/11 08:12:42;;;;;;;11.85;2.03;;;;;;;;;;5947386;24;20103;-82
2023/12/11 08:15:10;;;;;;;7.55;1.55;;;;;;;;;;5974088;23;20056;-81
2023/12/11 08:17:36;;;;;;;8.50;1.70;;;;;;;;;;5974748;23;20026;-82
2023/12/11 08:20:05;;;;;;;7.95;1.83;;;;;;;;;;5973289;23;20036;-81
2023/12/11 08:22:30;;;;;;;8.15;1.88;;;;;;;;;;5935531;23;20020;-82
2023/12/11 08:24:56;;;;;;;7.97;1.60;;;;;;;;;;5951844;24;20020;-81
2023/12/11 08:27:21;;;;;;;7.30;1.75;;;;;;;;;;5947482;24;20422;-82
2023/12/11 08:29:47;;;;;;;13.00;2.30;;;;;;;;;;5936886;24;20443;-82
2023/12/11 08:32:12;;;;;;;9.52;1.95;;;;;;;;;;5960361;23;20091;-81
2023/12/11 08:34:38;;;;;;;6.90;1.70;;;;;;;;;;5952041;23;20381;-82
2023/12/11 08:37:03;;;;;;;9.95;2.00;;;;;;;;;;5948821;23;20079;-82
2023/12/11 08:39:28;;;;;;;10.85;2.10;;;;;;;;;;5971616;23;20020;-82
2023/12/11 08:41:54;;;;;;;10.80;2.30;;;;;;;;;;5943402;23;20028;-82
2023/12/11 08:44:19;;;;;;;9.73;1.80;;;;;;;;;;5941195;23;20406;-82
2023/12/11 08:46:45;;;;;;;12.60;2.33;;;;;;;;;;5990820;23;20517;-82
2023/12/11 08:49:12;;;;;;;6.18;1.48;;;;;;;;;;6058042;23;20100;-82
2023/12/11 08:51:38;;;;;;;;;;;;;;;;;;6072890;23;20449;-82
2023/12/11 08:54:03;;;;;;;10.68;2.00;;;;;;;;;;6051095;23;20023;-82
2023/12/11 08:56:34;;;;;;;10.23;2.13;;;;;;;;;;6061221;23;20098;-81
2023/12/11 08:59:00;;;;;;;8.77;2.10;;;;;;;;;;6088724;23;20018;-81
2023/12/11 09:01:37;;;;;;;10.98;2.67;;;;;;;;;;6088110;23;20066;-81
2023/12/11 09:04:03;;;;;;;9.10;1.90;;;;;;;;;;6066431;23;20088;-82
2023/12/11 09:06:31;;;;;;;11.85;1.98;;;;;;;;;;6098862;23;20018;-81
2023/12/11 09:09:17;;;;;;;8.88;1.70;;;;;;;;;;6088165;23;20025;-81
2023/12/11 09:11:42;;;;;;;9.82;2.00;;;;;;;;;;5987540;23;20027;-81
2023/12/11 09:14:08;;;;;;;12.45;2.03;;;;;;;;;;5951063;23;20020;-81
2023/12/11 09:16:33;;;;;;;10.82;1.88;;;;;;;;;;5999942;23;20028;-81
2023/12/11 09:19:08;;;;;;;10.18;1.92;;;;;;;;;;5977350;23;20094;-81
2023/12/11 09:21:34;;;;;;;8.95;1.98;;;;;;;;;;5953260;23;20035;-81
2023/12/11 09:23:59;;;;;;;11.68;1.90;;;;;;;;;;5977576;23;20419;-81
2023/12/11 09:26:24;;;;;;;10.63;1.90;;;;;;;;;;5976413;23;20403;-81
2023/12/11 09:28:52;;;;;;;11.57;2.15;;;;;;;;;;5942845;23;20020;-81
2023/12/11 09:31:37;;;;;;;9.52;2.10;;;;;;;;;;5954731;23;20031;-81
2023/12/11 09:34:02;;;;;;;10.10;2.05;;;;;;;;;;5966091;23;20020;-81
2023/12/11 09:36:28;;;;;;;11.50;2.38;;;;;;;;;;5958291;23;20099;-81
2023/12/11 09:38:53;;;;;;;11.70;1.85;;;;;;;;;;5944978;23;20015;-81
2023/12/11 09:41:19;;;;;;;8.32;1.73;;;;;;;;;;5990493;23;20035;-81
2023/12/11 09:43:46;;;;;;;14.05;2.20;;;;;;;;;;5953363;23;20031;-81
2023/12/11 09:46:16;;;;;;;8.88;2.00;;;;;;;;;;5947137;24;20035;-81
2023/12/11 09:48:42;;;;;;;10.77;1.80;;;;;;;;;;6028714;23;20014;-81
2023/12/11 09:51:08;;;;;;;13.50;1.83;;;;;;;;;;6049135;23;20015;-81
2023/12/11 09:53:35;;;;;;;11.50;1.85;;;;;;;;;;6063962;23;20010;-81
2023/12/11 09:56:02;;;;;;;9.45;1.63;;;;;;;;;;6052441;23;20026;-81
2023/12/11 09:58:30;;;;;;;12.20;1.88;;;;;;;;;;6064413;23;20022;-81
2023/12/11 10:01:00;;;;;;;12.60;1.95;;;;;;;;;;6062099;23;20006;-81
2023/12/11 10:03:47;;;;;;;11.68;2.10;;;;;;;;;;6097756;23;20524;-81
2023/12/11 10:06:13;;;;;;;10.52;2.00;;;;;;;;;;5989987;23;20390;-82
2023/12/11 10:08:42;;;;;;;11.52;1.88;;;;;;;;;;5952499;23;20102;-80
2023/12/11 10:11:12;;;;;;;12.23;2.47;;;;;;;;;;5940509;23;20564;-80
2023/12/11 10:13:39;;;;;;;12.70;2.38;;;;;;;;;;5952436;23;20847;-80
2023/12/11 10:16:05;;;;;;;9.50;1.95;;;;;;;;;;5952889;23;20023;-81
2023/12/11 10:18:31;;;;;;;11.52;1.75;;;;;;;;;;5976631;23;20027;-81
2023/12/11 10:20:58;;;;;;;9.57;1.40;;;;;;;;;;5976799;23;20026;-81
2023/12/11 10:23:30;;;;;;;11.40;2.28;;;;;;;;;;5998385;23;20196;-81
2023/12/11 10:26:05;;;;;;;12.32;2.17;;;;;;;;;;5999854;23;20103;-81
2023/12/11 10:28:33;;;;;;;7.30;1.33;;;;;;;;;;5975760;23;20020;-80
2023/12/11 10:31:01;;;;;;;7.50;1.55;;;;;;;;;;5975909;23;20030;-81
2023/12/11 10:33:30;;;;;;;8.35;1.50;;;;;;;;;;6000632;23;20054;-81
2023/12/11 10:36:09;;;;;;;10.95;1.65;;;;;;;;;;5962306;23;20099;-82
2023/12/11 10:38:48;;;;;;;12.10;2.00;;;;;;;;;;5963974;23;20458;-81
2023/12/11 10:41:26;;;;;;;11.60;1.85;;;;;;;;;;5928205;23;20704;-82
2023/12/11 10:43:51;;;;;;;7.20;1.77;;;;;;;;;;6028870;23;20038;-82
2023/12/11 10:46:20;;;;;;;9.82;2.67;;;;;;;;;;6100951;23;20450;-82
2023/12/11 10:48:45;;;;;;;11.15;1.95;;;;;;;;;;6062990;23;20070;-82
2023/12/11 10:51:11;;;;;;;9.65;1.77;;;;;;;;;;6072520;23;20019;-82
2023/12/11 10:53:36;;;;;;;11.27;2.10;;;;;;;;;;6073496;23;20022;-81
2023/12/11 10:56:04;;;;;;;12.38;2.40;;;;;;;;;;6086705;23;20025;-82
2023/12/11 10:58:30;;;;;;;9.85;2.00;;;;;;;;;;6063795;23;20097;-82
2023/12/11 11:00:58;;;;;;;10.73;1.88;;;;;;;;;;6086407;23;20125;-83
2023/12/11 11:03:30;;;;;;;15.48;2.92;;;;;;;;;;6076974;23;20085;-82
2023/12/11 11:05:56;;;;;;;18.88;3.33;;;;;;;;;;6047370;23;20042;-82
2023/12/11 11:08:48;;;;;;;11.60;2.60;;;;;;;;;;6074163;23;20093;-82
2023/12/11 11:11:27;;;;;;;9.70;2.78;;;;;;;;;;6100270;23;20018;-82
2023/12/11 11:14:24;;;;;;;14.30;2.78;;;;;;;;;;6087123;23;20511;-80
2023/12/11 11:17:01;;;;;;;10.63;2.45;;;;;;;;;;6079115;23;20018;-81
2023/12/11 11:19:29;;;;;;;11.20;2.22;;;;;;;;;;6053163;23;20349;-83
2023/12/11 11:22:20;;;;;;;9.13;2.25;;;;;;;;;;6086827;23;20529;-82
2023/12/11 11:24:54;;;;;;;10.07;2.35;;;;;;;;;;6049723;23;20026;-81
2023/12/11 11:27:55;;;;;;;9.95;2.30;;;;;;;;;;6103478;23;20018;-82
2023/12/11 11:30:42;;;;;;;13.38;2.53;;;;;;;;;;5999366;23;20138;-81
2023/12/11 11:33:10;;;;;;;10.82;1.98;;;;;;;;;;6091996;23;20448;-82
2023/12/11 11:35:45;;;;;;;9.13;1.75;;;;;;;;;;6070437;23;20416;-81
2023/12/11 11:38:17;;;;;;;13.55;2.25;;;;;;;;;;6068483;23;20129;-83
2023/12/11 11:40:43;;;;;;;9.35;1.90;;;;;;;;;;6105770;23;20014;-82
2023/12/11 11:43:10;;;;;;;11.35;1.83;;;;;;;;;;6061763;23;20025;-82
2023/12/11 11:45:35;;;;;;;11.75;1.90;;;;;;;;;;6035205;23;20471;-82
2023/12/11 11:48:04;;;;;;;10.68;2.38;;;;;;;;;;5998130;23;20018;-81
2023/12/11 11:50:29;;;;;;;10.98;1.90;;;;;;;;;;6035065;23;20022;-82
2023/12/11 11:53:15;;;;;;;10.52;1.98;;;;;;;;;;6020321;23;20002;-81
2023/12/11 11:55:41;;;;;;;11.18;1.70;;;;;;;;;;5996991;23;20807;-81
2023/12/11 11:58:15;;;;;;;12.55;2.17;;;;;;;;;;6011127;23;20433;-81
2023/12/11 12:00:41;;;;;;;11.32;2.20;;;;;;;;;;6034311;23;20078;-82
2023/12/11 12:03:08;;;;;;;13.43;2.75;;;;;;;;;;6022462;23;20529;-81
2023/12/11 12:05:37;;;;;;;10.23;1.92;;;;;;;;;;6042728;23;20174;-82
2023/12/11 12:08:09;;;;;;;8.23;2.17;;;;;;;;;;6062276;23;20022;-81
2023/12/11 12:10:35;;;;;;;8.32;1.60;;;;;;;;;;6013649;23;20135;-82
2023/12/11 12:13:00;;;;;;;8.85;1.70;;;;;;;;;;6034627;23;20085;-82
2023/12/11 12:15:27;;;;;;;10.85;1.95;;;;;;;;;;6049034;23;20078;-81
2023/12/11 12:17:52;;;;;;;8.65;1.85;;;;;;;;;;6038055;23;20021;-82
2023/12/11 12:20:18;;;;;;;10.55;1.92;;;;;;;;;;6017516;23;20461;-82
2023/12/11 12:23:04;;;;;;;6.30;2.05;;;;;;;;;;6058973;23;20014;-81
2023/12/11 12:25:30;;;;;;;11.32;2.15;;;;;;;;;;6038731;23;20022;-81
2023/12/11 12:28:14;;;;;;;11.73;2.17;;;;;;;;;;6002362;23;20453;-81
2023/12/11 12:30:40;;;;;;;7.88;1.70;;;;;;;;;;6057459;23;20025;-82
2023/12/11 12:33:10;;;;;;;11.30;2.00;;;;;;;;;;6020385;23;20007;-82
2023/12/11 12:35:37;;;;;;;10.05;2.13;;;;;;;;;;6032585;23;20022;-82
2023/12/11 12:38:02;;;;;;;9.82;1.92;;;;;;;;;;6038406;23;20046;-81
2023/12/11 12:40:33;;;;;;;9.82;2.10;;;;;;;;;;6055892;23;20014;-81
2023/12/11 12:43:00;;;;;;;10.38;2.05;;;;;;;;;;6031158;23;20604;-81
2023/12/11 12:45:38;;;;;;;9.77;2.03;;;;;;;;;;6065389;23;20473;-81
2023/12/11 12:48:04;;;;;;;11.77;1.92;;;;;;;;;;6056769;23;20074;-81
2023/12/11 12:50:30;;;;;;;7.85;1.90;;;;;;;;;;6081674;23;20077;-82
2023/12/11 12:53:06;;;;;;;8.00;1.92;;;;;;;;;;6036122;23;20457;-82
2023/12/11 12:55:33;;;;;;;14.27;2.40;;;;;;;;;;6049444;23;20011;-82
2023/12/11 12:58:01;;;;;;;9.90;2.60;;;;;;;;;;6033274;23;20461;-80
2023/12/11 13:00:27;;;;;;;9.93;2.00;;;;;;;;;;6077668;23;20027;-82
2023/12/11 13:02:58;;;;;;;9.95;1.92;;;;;;;;;;6081397;23;20006;-83
2023/12/11 13:05:40;;;;;;;10.48;1.92;;;;;;;;;;6073106;23;20042;-82
2023/12/11 13:08:05;;;;;;;9.15;1.80;;;;;;;;;;6048471;23;20014;-82
2023/12/11 13:10:31;;;;;;;7.55;1.55;;;;;;;;;;6079064;23;20007;-82
2023/12/11 13:12:56;;;;;;;9.57;2.20;;;;;;;;;;6062765;23;20038;-81
2023/12/11 13:15:27;;;;;;;10.55;1.92;;;;;;;;;;6085266;23;20441;-82
2023/12/11 13:17:54;;;;;;;10.05;1.98;;;;;;;;;;6029281;23;20022;-82
2023/12/11 13:20:19;;;;;;;12.65;2.15;;;;;;;;;;6062311;23;20449;-81
2023/12/11 13:22:46;;;;;;;13.57;1.98;;;;;;;;;;6062581;23;20021;-81
2023/12/11 13:25:32;;;;;;;11.70;2.03;;;;;;;;;;6086855;23;20026;-81
2023/12/11 13:27:57;;;;;;;7.20;2.03;;;;;;;;;;6003329;23;20039;-81
2023/12/11 13:30:23;;;;;;;13.00;2.08;;;;;;;;;;5980975;23;20015;-82
2023/12/11 13:32:49;;;;;;;11.57;2.17;;;;;;;;;;5983070;23;20500;-82
2023/12/11 13:35:14;;;;;;;8.85;1.98;;;;;;;;;;6028481;23;20023;-82
2023/12/11 13:37:40;;;;;;;9.68;2.40;;;;;;;;;;5989052;23;20530;-82
2023/12/11 13:40:11;;;;;;;9.27;2.20;;;;;;;;;;6026958;23;20445;-82
2023/12/11 13:42:36;;;;;;;11.00;2.28;;;;;;;;;;6001341;23;20043;-83
2023/12/11 13:45:03;;;;;;;12.80;2.30;;;;;;;;;;5968363;23;20054;-82
2023/12/11 13:47:32;;;;;;;11.93;2.50;;;;;;;;;;5977256;23;20058;-82
2023/12/11 13:50:09;;;;;;;12.10;2.45;;;;;;;;;;6012445;23;20015;-82
2023/12/11 13:52:34;;;;;;;11.98;2.70;;;;;;;;;;5995944;23;20079;-82
2023/12/11 13:55:00;;;;;;;10.38;2.78;;;;;;;;;;5966553;23;20386;-83
2023/12/11 13:57:40;;;;;;;16.52;2.30;;;;;;;;;;5990248;23;20015;-82
2023/12/11 14:00:06;;;;;;;9.48;3.33;;;;;;;;;;5991484;23;20015;-83
2023/12/11 14:02:32;;;;;;;10.60;2.45;;;;;;;;;;5984905;23;20086;-83
2023/12/11 14:05:03;;;;;;;11.77;2.13;;;;;;;;;;6017691;23;20065;-82
2023/12/11 14:07:29;;;;;;;9.55;2.20;;;;;;;;;;6063738;23;20089;-83
2023/12/11 14:09:55;;;;;;;9.25;2.17;;;;;;;;;;6074342;23;20022;-83
2023/12/11 14:12:20;;;;;;;9.40;3.10;;;;;;;;;;6049267;23;20033;-83
2023/12/11 14:14:56;;;;;;;10.65;2.20;;;;;;;;;;6087599;23;20012;-82
2023/12/11 14:17:21;;;;;;;8.50;1.80;;;;;;;;;;6057870;23;20656;-83
2023/12/11 14:19:46;;;;;;;8.55;1.85;;;;;;;;;;6063299;23;20087;-83
2023/12/11 14:22:36;;;;;;;7.07;1.88;;;;;;;;;;6070630;23;20073;-82
2023/12/11 14:25:02;;;;;;;8.00;2.15;;;;;;;;;;6048219;23;20420;-83
2023/12/11 14:27:28;;;;;;;7.82;1.70;;;;;;;;;;6074526;23;20471;-83
2023/12/11 14:30:09;;;;;;;6.07;2.08;;;;;;;;;;6050448;23;20022;-83
2023/12/11 14:32:37;;;;;;;5.80;1.83;;;;;;;;;;6051325;23;20024;-82
2023/12/11 14:35:02;;;;;;;9.02;2.30;;;;;;;;;;6088736;23;20037;-83
2023/12/11 14:37:28;;;;;;;13.95;3.58;;;;;;;;;;6051437;23;20009;-83
2023/12/11 14:39:53;;;;;;;8.60;2.22;;;;;;;;;;6058137;23;20097;-83